createdAt,value
2023-01-03T00:01:57.662Z,27.80
2023-01-03T00:04:25.417Z,27.38
2023-01-03T00:06:53.963Z,26.52
2023-01-03T00:09:24.092Z,25.70
2023-01-03T00:12:12.664Z,25.90
2023-01-03T00:14:44.083Z,25.95
2023-01-03T00:19:42.971Z,21.88
2023-01-03T00:22:12.331Z,21.95
2023-01-03T00:24:40.078Z,21.30
2023-01-03T00:27:09.050Z,22.73
2023-01-03T00:29:36.802Z,18.45
2023-01-03T00:32:05.993Z,19.58
2023-01-03T00:34:35.591Z,22.92
2023-01-03T00:37:03.324Z,21.30
2023-01-03T00:39:31.064Z,19.08
2023-01-03T00:41:58.790Z,28.00
2023-01-03T00:44:26.464Z,21.30
2023-01-03T00:46:54.161Z,18.20
2023-01-03T00:49:22.319Z,22.50
2023-01-03T00:51:50.875Z,19.65
2023-01-03T00:54:21.857Z,18.38
2023-01-03T00:56:50.622Z,19.67
2023-01-03T00:59:20.127Z,16.52
2023-01-03T01:01:57.548Z,14.80
2023-01-03T01:04:31.423Z,17.63
2023-01-03T01:07:01.582Z,17.42
2023-01-03T01:09:35.055Z,18.08
2023-01-03T01:12:04.771Z,14.23
2023-01-03T01:14:33.968Z,17.97
2023-01-03T01:17:04.262Z,13.88
2023-01-03T01:19:40.859Z,10.27
2023-01-03T01:22:09.367Z,17.13
2023-01-03T01:24:37.308Z,13.20
2023-01-03T01:27:05.347Z,17.05
2023-01-03T01:29:33.065Z,13.68
2023-01-03T01:32:01.880Z,13.52
2023-01-03T01:34:30.384Z,9.05
2023-01-03T01:36:58.164Z,10.32
2023-01-03T01:39:30.736Z,11.13
2023-01-03T01:42:20.817Z,10.40
2023-01-03T01:45:02.329Z,13.48
2023-01-03T01:47:53.092Z,11.48
2023-01-03T01:53:17.707Z,9.60
2023-01-03T01:56:00.256Z,13.02
2023-01-03T01:58:33.227Z,9.88
2023-01-03T02:01:01.059Z,10.90
2023-01-03T02:03:28.922Z,10.38
2023-01-03T02:05:57.289Z,10.93
2023-01-03T02:08:25.323Z,14.45
2023-01-03T02:11:17.577Z,17.17
2023-01-03T02:14:06.465Z,13.82
2023-01-03T02:16:48.452Z,12.00
2023-01-03T02:19:38.860Z,13.82
2023-01-03T02:23:03.799Z,12.52
2023-01-03T02:25:45.668Z,11.70
2023-01-03T02:28:58.826Z,21.75
2023-01-03T02:31:57.089Z,17.92
2023-01-03T02:34:54.517Z,17.15
2023-01-03T02:37:40.685Z,14.77
2023-01-03T02:40:43.467Z,19.63
2023-01-03T02:43:51.915Z,19.95
2023-01-03T02:46:33.457Z,17.98
2023-01-03T02:49:27.872Z,19.27
2023-01-03T02:52:02.169Z,19.50
2023-01-03T02:55:00.742Z,16.10
2023-01-03T02:57:55.019Z,19.33
2023-01-03T03:00:28.245Z,17.35
2023-01-03T03:03:04.857Z,21.25
2023-01-03T03:05:37.930Z,20.17
2023-01-03T03:08:05.584Z,18.35
2023-01-03T03:10:52.012Z,19.10
2023-01-03T03:13:33.472Z,24.80
2023-01-03T03:16:43.385Z,22.42
2023-01-03T03:19:41.806Z,21.08
2023-01-03T03:22:43.732Z,20.95
2023-01-03T03:25:18.321Z,21.30
2023-01-03T03:28:07.642Z,23.75
2023-01-03T03:30:39.814Z,22.25
2023-01-03T03:33:09.897Z,24.50
2023-01-03T03:35:53.869Z,27.58
2023-01-03T03:38:43.188Z,22.35
2023-01-03T03:41:51.023Z,26.92
2023-01-03T03:44:52.067Z,24.30
2023-01-03T03:47:30.517Z,21.52
2023-01-03T03:50:18.897Z,28.25
2023-01-03T03:52:50.450Z,24.23
2023-01-03T03:55:34.662Z,22.25
2023-01-03T03:58:11.621Z,20.48
2023-01-03T04:00:41.915Z,22.52
2023-01-03T04:03:10.926Z,21.40
2023-01-03T04:05:42.751Z,26.98
2023-01-03T04:08:10.567Z,26.17
2023-01-03T04:10:38.815Z,26.42
2023-01-03T04:13:06.568Z,21.58
2023-01-03T04:15:34.475Z,22.77
2023-01-03T04:18:02.719Z,21.95
2023-01-03T04:20:30.499Z,20.98
2023-01-03T04:22:58.211Z,23.13
2023-01-03T04:25:25.982Z,26.13
2023-01-03T04:27:53.637Z,24.50
2023-01-03T04:30:21.444Z,23.15
2023-01-03T04:32:49.104Z,27.80
2023-01-03T04:35:16.765Z,27.88
2023-01-03T04:37:44.406Z,22.25
2023-01-03T04:40:12.207Z,23.30
2023-01-03T04:42:58.350Z,24.77
2023-01-03T04:45:26.452Z,24.35
2023-01-03T04:47:54.454Z,27.25
2023-01-03T04:50:22.292Z,24.33
2023-01-03T04:52:49.958Z,30.50
2023-01-03T04:55:17.706Z,29.20
2023-01-03T04:57:45.349Z,25.92
2023-01-03T05:00:13.499Z,33.92
2023-01-03T05:02:41.294Z,27.88
2023-01-03T05:05:09.687Z,26.90
2023-01-03T05:07:37.701Z,27.55
2023-01-03T05:10:05.848Z,33.58
2023-01-03T05:12:33.494Z,32.25
2023-01-03T05:15:01.117Z,24.60
2023-01-03T05:17:28.850Z,26.95
2023-01-03T05:20:15.193Z,29.30
2023-01-03T05:23:01.877Z,24.60
2023-01-03T05:25:48.529Z,25.73
2023-01-03T05:28:17.690Z,29.85
2023-01-03T05:30:45.542Z,23.75
2023-01-03T05:33:13.283Z,25.23
2023-01-03T05:35:41.039Z,26.88
2023-01-03T05:38:08.746Z,25.50
2023-01-03T05:40:41.229Z,28.90
2023-01-03T05:43:09.644Z,27.60
2023-01-03T05:45:38.639Z,28.40
2023-01-03T05:48:07.852Z,27.00
2023-01-03T05:50:35.541Z,32.45
2023-01-03T05:53:03.989Z,18.55
2023-01-03T05:55:31.762Z,29.40
2023-01-03T05:57:59.419Z,24.17
2023-01-03T06:00:27.180Z,26.88
2023-01-03T06:02:55.088Z,22.95
2023-01-03T06:05:23.162Z,27.30
2023-01-03T06:07:50.827Z,20.02
2023-01-03T06:10:18.616Z,27.05
2023-01-03T06:12:46.254Z,20.10
2023-01-03T06:15:14.074Z,19.60
2023-01-03T06:17:59.038Z,22.75
2023-01-03T06:20:27.842Z,24.08
2023-01-03T06:22:56.164Z,26.02
2023-01-03T06:25:24.288Z,28.40
2023-01-03T06:27:51.937Z,22.77
2023-01-03T06:30:20.961Z,29.15
2023-01-03T06:32:48.890Z,23.10
2023-01-03T06:35:16.705Z,22.05
2023-01-03T06:37:44.478Z,24.65
2023-01-03T06:40:12.398Z,23.58
2023-01-03T06:42:40.173Z,27.58
2023-01-03T06:45:27.304Z,22.90
2023-01-03T06:48:13.244Z,21.00
2023-01-03T06:51:01.417Z,25.60
2023-01-03T06:53:37.890Z,22.83
2023-01-03T06:56:06.694Z,17.42
2023-01-03T06:58:35.105Z,28.25
2023-01-03T07:01:04.968Z,20.10
2023-01-03T07:03:34.014Z,24.63
2023-01-03T07:06:01.747Z,16.52
2023-01-03T07:08:29.429Z,21.20
2023-01-03T07:10:57.134Z,17.33
2023-01-03T07:13:43.025Z,17.88
2023-01-03T07:16:15.396Z,28.10
2023-01-03T07:18:44.359Z,24.67
2023-01-03T07:21:14.599Z,17.85
2023-01-03T07:23:43.145Z,19.60
2023-01-03T07:26:10.888Z,16.77
2023-01-03T07:28:38.622Z,19.90
2023-01-03T07:31:07.736Z,19.95
2023-01-03T07:33:37.403Z,17.05
2023-01-03T07:36:11.854Z,21.13
2023-01-03T07:38:41.729Z,21.42
2023-01-03T07:41:10.458Z,17.60
2023-01-03T07:43:43.100Z,18.42
2023-01-03T07:46:14.573Z,14.32
2023-01-03T07:48:43.085Z,19.27
2023-01-03T07:51:12.932Z,25.75
2023-01-03T07:53:41.567Z,18.40
2023-01-03T07:56:20.133Z,16.27
2023-01-03T07:58:49.666Z,14.90
2023-01-03T08:01:22.749Z,11.13
2023-01-03T08:03:50.976Z,23.25
2023-01-03T08:06:24.055Z,16.65
2023-01-03T08:09:19.554Z,18.02
2023-01-03T08:12:05.553Z,25.42
2023-01-03T08:14:33.224Z,17.10
2023-01-03T08:17:01.195Z,22.25
2023-01-03T08:19:28.937Z,15.30
2023-01-03T08:21:56.713Z,17.83
2023-01-03T08:24:25.794Z,17.63
2023-01-03T08:26:56.456Z,22.42
2023-01-03T08:29:24.278Z,24.27
2023-01-03T08:31:57.167Z,18.08
2023-01-03T08:34:30.177Z,17.35
2023-01-03T08:37:06.891Z,25.80
2023-01-03T08:39:42.616Z,18.33
2023-01-03T08:42:15.071Z,24.88
2023-01-03T08:44:45.144Z,19.17
2023-01-03T08:47:15.293Z,18.88
2023-01-03T08:49:46.095Z,18.60
2023-01-03T08:52:15.002Z,16.52
2023-01-03T08:54:44.118Z,19.40
2023-01-03T08:57:12.016Z,29.70
2023-01-03T08:59:39.977Z,24.58
2023-01-03T09:02:08.069Z,20.52
2023-01-03T09:04:35.861Z,11.77
2023-01-03T09:07:07.339Z,16.23
2023-01-03T09:09:38.187Z,23.75
2023-01-03T09:12:16.905Z,23.13
2023-01-03T09:14:44.710Z,25.52
2023-01-03T09:17:15.007Z,23.75
2023-01-03T09:19:43.580Z,18.88
2023-01-03T09:22:11.295Z,15.35
2023-01-03T09:24:39.281Z,20.80
2023-01-03T09:27:09.828Z,17.50
2023-01-03T09:29:40.854Z,16.52
2023-01-03T09:32:08.585Z,20.73
2023-01-03T09:34:36.433Z,25.67
2023-01-03T09:37:04.641Z,26.52
2023-01-03T09:39:33.367Z,20.58
2023-01-03T09:42:22.421Z,11.45
2023-01-03T09:45:01.032Z,15.38
2023-01-03T09:47:36.835Z,15.57
2023-01-03T09:53:13.287Z,20.25
2023-01-03T09:56:26.291Z,21.38
2023-01-03T09:59:20.954Z,23.38
2023-01-03T10:02:14.866Z,22.55
2023-01-03T10:05:03.892Z,25.75
2023-01-03T10:07:37.384Z,20.80
2023-01-03T10:10:07.963Z,15.07
2023-01-03T10:12:53.757Z,19.02
2023-01-03T10:15:30.666Z,20.02
2023-01-03T10:18:18.061Z,17.95
2023-01-03T10:20:50.432Z,13.52
2023-01-03T10:23:19.022Z,23.58
2023-01-03T10:25:48.291Z,17.08
2023-01-03T10:28:34.847Z,20.33
2023-01-03T10:31:08.404Z,23.05
2023-01-03T10:33:49.321Z,16.15
2023-01-03T10:36:19.582Z,23.55
2023-01-03T10:38:53.025Z,24.88
2023-01-03T10:41:40.522Z,20.92
2023-01-03T10:44:26.071Z,17.50
2023-01-03T10:46:56.127Z,21.35
2023-01-03T10:49:29.548Z,16.05
2023-01-03T10:52:01.152Z,19.08
2023-01-03T10:54:31.266Z,15.88
2023-01-03T10:56:59.058Z,11.38
2023-01-03T10:59:27.955Z,12.70
2023-01-03T11:02:15.615Z,21.10
2023-01-03T11:04:44.077Z,27.02
2023-01-03T11:07:15.642Z,23.60
2023-01-03T11:09:58.318Z,20.60
2023-01-03T11:12:40.282Z,17.10
2023-01-03T11:15:19.093Z,23.00
2023-01-03T11:17:57.291Z,17.70
2023-01-03T11:20:53.134Z,23.27
2023-01-03T11:23:39.564Z,25.23
2023-01-03T11:26:19.284Z,17.08
2023-01-03T11:29:23.379Z,24.13
2023-01-03T11:32:04.740Z,19.08
2023-01-03T11:34:55.042Z,25.92
2023-01-03T11:37:43.320Z,23.83
2023-01-03T11:40:17.424Z,16.08
2023-01-03T11:43:17.475Z,17.20
2023-01-03T11:45:49.731Z,20.20
2023-01-03T11:48:47.278Z,22.90
2023-01-03T11:51:24.360Z,14.88
2023-01-03T11:54:18.355Z,20.73
2023-01-03T11:56:47.827Z,27.58
2023-01-03T11:59:42.610Z,17.58
2023-01-03T12:02:37.936Z,22.13
2023-01-03T12:05:29.693Z,19.52
2023-01-03T12:08:06.199Z,19.98
2023-01-03T12:11:06.952Z,12.43
2023-01-03T12:16:33.426Z,18.05
2023-01-03T12:19:12.856Z,16.75
2023-01-03T12:21:48.272Z,21.80
2023-01-03T12:24:35.987Z,23.58
2023-01-03T12:27:15.748Z,14.73
2023-01-03T12:29:59.415Z,13.25
2023-01-03T12:32:42.293Z,16.35
2023-01-03T12:35:29.005Z,17.83
2023-01-03T12:37:59.138Z,23.70
2023-01-03T12:40:52.721Z,17.20
2023-01-03T12:43:33.032Z,14.82
2023-01-03T12:46:13.281Z,23.05
2023-01-03T12:48:46.991Z,7.82
2023-01-03T12:51:17.945Z,10.30
2023-01-03T12:54:05.595Z,11.23
2023-01-03T12:57:06.431Z,13.48
2023-01-03T13:02:24.996Z,12.75
2023-01-03T13:05:09.996Z,16.80
2023-01-03T13:07:41.517Z,12.95
2023-01-03T13:10:16.618Z,16.58
2023-01-03T13:12:54.867Z,11.80
2023-01-03T13:15:36.255Z,13.15
2023-01-03T13:18:18.963Z,15.00
2023-01-03T13:20:50.344Z,15.68
2023-01-03T13:23:42.607Z,20.50
2023-01-03T13:26:40.291Z,12.63
2023-01-03T13:29:50.923Z,24.75
2023-01-03T13:32:21.713Z,15.40
2023-01-03T13:37:43.160Z,22.40
2023-01-03T13:40:34.670Z,16.75
2023-01-03T13:43:17.578Z,19.85
2023-01-03T13:45:45.257Z,17.30
2023-01-03T13:48:37.245Z,18.13
2023-01-03T13:51:17.325Z,17.67
2023-01-03T13:54:04.888Z,17.23
2023-01-03T13:56:44.940Z,12.05
2023-01-03T13:59:17.867Z,25.88
2023-01-03T14:02:10.882Z,23.48
2023-01-03T14:04:57.205Z,20.42
2023-01-03T14:07:43.157Z,18.05
2023-01-03T14:10:36.299Z,29.27
2023-01-03T14:13:17.787Z,20.17
2023-01-03T14:15:47.368Z,16.25
2023-01-03T14:18:15.465Z,15.43
2023-01-03T14:20:47.796Z,22.35
2023-01-03T14:23:57.914Z,19.33
2023-01-03T14:26:14.921Z,15.63
2023-01-03T14:28:48.513Z,16.55
2023-01-03T14:31:21.402Z,20.85
2023-01-03T14:34:00.860Z,18.27
2023-01-03T14:36:29.561Z,19.25
2023-01-03T14:39:02.079Z,28.23
2023-01-03T14:41:39.533Z,16.60
2023-01-03T14:44:16.291Z,18.92
2023-01-03T14:46:59.969Z,24.42
2023-01-03T14:52:39.888Z,15.50
2023-01-03T14:55:19.243Z,19.92
2023-01-03T14:57:50.102Z,14.80
2023-01-03T15:00:33.051Z,18.75
2023-01-03T15:03:04.442Z,16.63
2023-01-03T15:05:39.554Z,12.23
2023-01-03T15:08:31.540Z,12.65
2023-01-03T15:11:10.290Z,14.38
2023-01-03T15:13:55.670Z,11.65
2023-01-03T15:16:42.873Z,24.55
2023-01-03T15:19:40.142Z,11.90
2023-01-03T15:22:43.371Z,13.15
2023-01-03T15:25:46.050Z,13.85
2023-01-03T15:28:31.111Z,12.50
2023-01-03T15:31:14.721Z,12.05
2023-01-03T15:34:02.915Z,24.08
2023-01-03T15:36:35.980Z,12.52
2023-01-03T15:39:10.650Z,13.15
2023-01-03T15:42:34.676Z,18.88
2023-01-03T15:44:49.679Z,16.08
2023-01-03T15:47:24.163Z,17.45
2023-01-03T15:49:57.741Z,21.98
2023-01-03T15:52:27.102Z,15.48
2023-01-03T15:55:01.609Z,17.95
2023-01-03T15:57:31.111Z,13.82
2023-01-03T16:00:03.083Z,18.38
2023-01-03T16:02:47.264Z,15.48
2023-01-03T16:05:26.010Z,12.55
2023-01-03T16:07:54.156Z,22.90
2023-01-03T16:10:22.087Z,23.13
2023-01-03T16:12:49.959Z,17.60
2023-01-03T16:15:22.363Z,23.40
2023-01-03T16:17:51.580Z,13.90
2023-01-03T16:20:23.112Z,18.25
2023-01-03T16:23:00.471Z,17.17
2023-01-03T16:25:31.737Z,14.55
2023-01-03T16:28:03.707Z,16.05
2023-01-03T16:30:36.325Z,15.70
2023-01-03T16:33:17.923Z,21.92
2023-01-03T16:35:54.501Z,12.32
2023-01-03T16:38:25.687Z,16.00
2023-01-03T16:41:02.912Z,16.27
2023-01-03T16:43:38.657Z,23.52
2023-01-03T16:46:22.895Z,20.20
2023-01-03T16:48:57.838Z,20.60
2023-01-03T16:51:31.554Z,12.48
2023-01-03T16:54:02.793Z,17.88
2023-01-03T16:56:33.984Z,15.07
2023-01-03T16:59:04.857Z,13.93
2023-01-03T17:01:32.719Z,12.55
2023-01-03T17:04:03.665Z,12.02
2023-01-03T17:06:37.890Z,13.77
2023-01-03T17:09:12.703Z,11.98
2023-01-03T17:11:40.611Z,15.82
2023-01-03T17:14:19.167Z,9.60
2023-01-03T17:16:47.245Z,14.88
2023-01-03T17:22:21.913Z,10.15
2023-01-03T17:24:51.755Z,11.23
2023-01-03T17:27:31.811Z,14.30
2023-01-03T17:30:04.881Z,11.85
2023-01-03T17:32:34.027Z,10.75
2023-01-03T17:35:03.372Z,12.05
2023-01-03T17:37:45.434Z,13.13
2023-01-03T17:40:32.926Z,7.55
2023-01-03T17:43:02.112Z,13.07
2023-01-03T17:45:48.833Z,6.88
2023-01-03T17:48:35.190Z,11.07
2023-01-03T17:51:03.000Z,13.27
2023-01-03T17:53:30.915Z,7.28
2023-01-03T17:55:58.930Z,11.38
2023-01-03T17:58:32.946Z,10.75
2023-01-03T18:03:29.205Z,9.95
2023-01-03T18:05:57.343Z,12.75
2023-01-03T18:08:25.590Z,11.23
2023-01-03T18:10:53.772Z,12.65
2023-01-03T18:13:23.589Z,8.90
2023-01-03T18:15:52.318Z,7.87
2023-01-03T18:18:22.340Z,12.02
2023-01-03T18:20:52.090Z,9.23
2023-01-03T18:23:27.214Z,9.02
2023-01-03T18:25:56.339Z,13.27
2023-01-03T18:28:26.460Z,5.95
2023-01-03T18:30:56.066Z,4.55
2023-01-03T18:33:23.972Z,12.90
2023-01-03T18:35:52.716Z,7.82
2023-01-03T18:38:26.350Z,9.52
2023-01-03T18:40:59.053Z,14.98
2023-01-03T18:43:32.249Z,5.90
2023-01-03T18:46:00.148Z,9.23
2023-01-03T18:48:28.137Z,9.00
2023-01-03T18:50:59.288Z,9.30
2023-01-03T18:53:31.321Z,13.43
2023-01-03T18:56:00.421Z,14.05
2023-01-03T18:58:37.783Z,9.00
2023-01-03T19:01:07.570Z,9.82
2023-01-03T19:03:39.501Z,5.22
2023-01-03T19:06:20.645Z,12.70
2023-01-03T19:08:49.304Z,4.57
2023-01-03T19:11:27.723Z,18.02
2023-01-03T19:13:56.068Z,6.28
2023-01-03T19:16:27.104Z,5.65
2023-01-03T19:18:56.203Z,9.57
2023-01-03T19:21:24.769Z,8.45
2023-01-03T19:24:00.688Z,5.03
2023-01-03T19:26:52.817Z,6.22
2023-01-03T19:29:37.147Z,10.70
2023-01-03T19:32:11.855Z,1.00
2023-01-03T19:34:48.742Z,3.25
2023-01-03T19:37:17.269Z,6.25
2023-01-03T19:39:45.181Z,6.55
2023-01-03T19:42:54.510Z,3.10
2023-01-03T19:45:38.757Z,2.83
2023-01-03T19:48:21.177Z,3.83
2023-01-03T19:50:50.225Z,2.05
2023-01-03T19:53:18.077Z,6.60
2023-01-03T19:55:47.661Z,4.32
2023-01-03T19:58:21.781Z,3.40
2023-01-03T20:00:51.479Z,2.33
2023-01-03T20:03:29.967Z,1.20
2023-01-03T20:05:58.848Z,6.07
2023-01-03T20:08:26.757Z,2.25
2023-01-03T20:10:54.630Z,2.15
2023-01-03T20:13:24.826Z,1.52
2023-01-03T20:15:55.839Z,3.67
2023-01-03T20:18:34.144Z,9.70
2023-01-03T20:21:22.535Z,3.67
2023-01-03T20:23:54.696Z,3.60
2023-01-03T20:26:27.163Z,6.90
2023-01-03T20:28:57.606Z,4.72
2023-01-03T20:31:26.122Z,3.78
2023-01-03T20:33:53.877Z,18.00
2023-01-03T20:36:24.727Z,4.00
2023-01-03T20:38:54.311Z,1.92
2023-01-03T20:41:36.074Z,1.98
2023-01-03T20:44:09.858Z,2.20
2023-01-03T20:46:39.132Z,1.88
2023-01-03T20:49:17.484Z,1.17
2023-01-03T20:51:45.262Z,8.10
2023-01-03T20:54:12.967Z,3.45
2023-01-03T20:56:40.727Z,4.43
2023-01-03T20:59:13.495Z,3.90
2023-01-03T21:01:41.249Z,6.57
2023-01-03T21:04:12.168Z,5.55
2023-01-03T21:06:42.995Z,4.50
2023-01-03T21:09:11.589Z,4.93
2023-01-03T21:11:39.591Z,15.70
2023-01-03T21:14:08.117Z,4.30
2023-01-03T21:16:46.708Z,5.63
2023-01-03T21:19:14.447Z,6.20
2023-01-03T21:21:43.532Z,5.00
2023-01-03T21:24:12.710Z,8.15
2023-01-03T21:26:40.890Z,2.60
2023-01-03T21:29:09.258Z,7.60
2023-01-03T21:31:38.666Z,5.03
2023-01-03T21:34:07.843Z,4.13
2023-01-03T21:36:36.318Z,2.85
2023-01-03T21:39:04.806Z,3.22
2023-01-03T21:41:34.744Z,8.60
2023-01-03T21:44:03.998Z,8.23
2023-01-03T21:46:31.946Z,4.75
2023-01-03T21:48:59.981Z,3.75
2023-01-03T21:51:37.852Z,10.38
2023-01-03T21:54:08.503Z,10.93
2023-01-03T21:56:46.173Z,11.75
2023-01-03T21:59:15.708Z,9.15
2023-01-03T22:02:05.734Z,15.43
2023-01-03T22:04:34.302Z,15.00
2023-01-03T22:07:02.438Z,15.82
2023-01-03T22:10:03.859Z,15.02
2023-01-03T22:12:31.740Z,11.32
2023-01-03T22:14:59.418Z,10.63
2023-01-03T22:17:27.271Z,22.17
2023-01-03T22:19:54.947Z,21.23
2023-01-03T22:22:22.646Z,22.25
2023-01-03T22:24:50.273Z,27.58
2023-01-03T22:27:17.895Z,26.63
2023-01-03T22:29:45.561Z,23.92
2023-01-03T22:32:13.324Z,26.63
2023-01-03T22:34:41.101Z,26.60
2023-01-03T22:37:08.913Z,27.52
2023-01-03T22:39:36.644Z,25.65
2023-01-03T22:42:04.417Z,26.20
2023-01-03T22:44:32.107Z,22.35
2023-01-03T22:46:59.763Z,26.90
2023-01-03T22:49:27.868Z,22.15
2023-01-03T22:51:55.508Z,21.70
2023-01-03T22:54:23.213Z,15.40
2023-01-03T22:56:51.023Z,19.80
2023-01-03T22:59:18.850Z,21.70
2023-01-03T23:01:46.728Z,27.63
2023-01-03T23:04:14.495Z,27.00
2023-01-03T23:06:43.158Z,22.67
2023-01-03T23:09:11.542Z,23.02
2023-01-03T23:11:58.582Z,23.00
2023-01-03T23:14:27.771Z,16.25
2023-01-03T23:17:18.398Z,15.75
2023-01-03T23:19:46.278Z,18.35
2023-01-03T23:22:13.916Z,19.08
2023-01-03T23:24:41.498Z,24.23
2023-01-03T23:27:09.109Z,21.45
2023-01-03T23:29:36.666Z,16.35
2023-01-03T23:32:04.497Z,17.85
2023-01-03T23:34:32.178Z,19.15
2023-01-03T23:36:59.999Z,19.65
2023-01-03T23:39:27.834Z,15.77
2023-01-03T23:41:55.780Z,22.38
2023-01-03T23:44:23.398Z,22.17
2023-01-03T23:46:51.063Z,19.15
2023-01-03T23:49:18.704Z,17.35
2023-01-03T23:51:46.323Z,20.80
2023-01-03T23:54:13.941Z,13.43
2023-01-03T23:56:41.640Z,19.23
2023-01-03T23:59:09.276Z,19.83
